Time;durP1;ratioP1;P1;durP2;ratioP2;P2;SDS_P1;SDS_P2;PMS_P1;PMS_P2;Temp;Humidity;BMP_temperature;BMP_pressure;BME280_temperature;BME280_humidity;BME280_pressure;Samples;Min_cycle;Max_cycle;Signal;HPM_P1;HPM_P2
2021/10/04 00:00:00;;;;;;;3.50;2.43;;;14.10;99.90;;;;;;4988201;28;20633;-68
2021/10/04 00:02:27;;;;;;;3.27;2.40;;;14.10;99.90;;;;;;4990127;28;20216;-67
2021/10/04 00:04:55;;;;;;;2.50;2.30;;;14.10;99.90;;;;;;4990674;28;20757;-68
2021/10/04 00:07:22;;;;;;;2.73;2.43;;;14.00;99.90;;;;;;4991121;28;20205;-67
2021/10/04 00:09:49;;;;;;;3.63;2.00;;;13.90;99.90;;;;;;4992157;28;20583;-68
2021/10/04 00:12:16;;;;;;;2.60;2.33;;;14.00;99.90;;;;;;4990846;28;20209;-68
2021/10/04 00:14:43;;;;;;;4.07;2.50;;;13.90;99.90;;;;;;4991585;28;20243;-67
2021/10/04 00:17:12;;;;;;;3.60;2.37;;;13.70;99.90;;;;;;4987051;28;20320;-67
2021/10/04 00:19:39;;;;;;;2.33;2.13;;;13.70;99.90;;;;;;4990305;28;20208;-68
2021/10/04 00:22:07;;;;;;;2.97;2.50;;;13.70;99.90;;;;;;4983359;28;20614;-67
2021/10/04 00:24:34;;;;;;;4.80;2.80;;;13.70;99.90;;;;;;4987235;28;20201;-68
2021/10/04 00:27:01;;;;;;;4.23;3.03;;;13.70;99.90;;;;;;4986560;28;20209;-68
2021/10/04 00:29:28;;;;;;;5.67;2.90;;;13.70;99.90;;;;;;4988335;28;20201;-67
2021/10/04 00:31:55;;;;;;;4.50;3.20;;;13.60;99.90;;;;;;4987290;28;20640;-67
2021/10/04 00:34:25;;;;;;;5.00;2.57;;;13.60;99.90;;;;;;4988205;28;20197;-67
2021/10/04 00:36:52;;;;;;;2.97;2.63;;;13.60;99.90;;;;;;4988710;28;20260;-68
2021/10/04 00:39:19;;;;;;;2.70;2.43;;;13.50;99.90;;;;;;4989849;28;20217;-67
2021/10/04 00:41:46;;;;;;;5.03;2.97;;;13.50;99.90;;;;;;4988666;28;20544;-67
2021/10/04 00:44:13;;;;;;;3.87;2.83;;;13.60;99.90;;;;;;4989478;28;20204;-67
2021/10/04 00:46:40;;;;;;;3.33;3.00;;;13.60;99.90;;;;;;4988238;28;20299;-67
2021/10/04 00:49:07;;;;;;;5.47;3.10;;;13.60;99.90;;;;;;4989791;28;20255;-67
2021/10/04 00:51:36;;;;;;;2.77;2.53;;;13.60;99.90;;;;;;4985507;28;20279;-67
2021/10/04 00:54:03;;;;;;;3.60;3.00;;;13.50;99.90;;;;;;4983846;28;20201;-67
2021/10/04 00:56:31;;;;;;;6.17;3.40;;;13.60;99.90;;;;;;4986602;28;20237;-67
2021/10/04 00:58:59;;;;;;;4.33;2.97;;;13.50;99.90;;;;;;4987761;28;20224;-67
2021/10/04 01:01:28;;;;;;;4.73;3.13;;;13.50;99.90;;;;;;4987820;28;20622;-67
2021/10/04 01:03:56;;;;;;;2.90;2.37;;;13.50;99.90;;;;;;4985081;28;20236;-67
2021/10/04 01:06:24;;;;;;;5.07;2.43;;;13.40;99.90;;;;;;4988328;28;20201;-67
2021/10/04 01:08:52;;;;;;;2.27;2.03;;;13.40;99.90;;;;;;4988119;28;20255;-67
2021/10/04 01:11:20;;;;;;;2.07;1.83;;;13.50;99.90;;;;;;4982693;28;20260;-67
2021/10/04 01:13:48;;;;;;;2.20;2.00;;;13.40;99.90;;;;;;4989791;28;20255;-67
2021/10/04 01:16:16;;;;;;;2.87;1.90;;;13.40;99.90;;;;;;4988512;28;20205;-67
2021/10/04 01:18:43;;;;;;;2.20;1.70;;;13.50;99.90;;;;;;4990554;28;20303;-67
2021/10/04 01:21:11;;;;;;;2.10;1.53;;;13.50;99.90;;;;;;4989033;28;20209;-67
2021/10/04 01:23:38;;;;;;;2.47;1.57;;;13.60;99.90;;;;;;4985105;28;20343;-67
2021/10/04 01:26:06;;;;;;;1.90;1.70;;;13.50;99.90;;;;;;4986648;28;20279;-67
2021/10/04 01:28:33;;;;;;;2.63;1.50;;;13.50;99.90;;;;;;4987718;28;20229;-67
2021/10/04 01:31:00;;;;;;;2.13;1.67;;;13.50;99.90;;;;;;4985493;28;20268;-67
2021/10/04 01:33:27;;;;;;;1.70;1.60;;;13.50;99.90;;;;;;4987548;28;20618;-67
2021/10/04 01:35:54;;;;;;;2.00;1.73;;;13.40;99.90;;;;;;4980920;28;20279;-67
2021/10/04 01:38:23;;;;;;;3.20;1.40;;;13.30;99.90;;;;;;4987071;28;20229;-67
2021/10/04 01:40:50;;;;;;;1.80;1.70;;;13.40;99.90;;;;;;4988625;28;20994;-67
2021/10/04 01:43:17;;;;;;;2.23;1.83;;;13.40;99.90;;;;;;4985632;28;20220;-67
2021/10/04 01:45:44;;;;;;;3.93;1.70;;;13.30;99.90;;;;;;4987654;28;20209;-67
2021/10/04 01:48:11;;;;;;;2.13;1.70;;;13.30;99.90;;;;;;4989625;28;20573;-67
2021/10/04 01:50:39;;;;;;;2.03;1.93;;;13.20;99.90;;;;;;4985884;28;20197;-67
2021/10/04 01:53:08;;;;;;;2.77;1.77;;;13.20;99.90;;;;;;4987468;28;20268;-67
2021/10/04 01:55:37;;;;;;;2.63;1.93;;;13.10;99.90;;;;;;4987817;28;20648;-67
2021/10/04 01:58:05;;;;;;;2.27;1.90;;;13.20;99.90;;;;;;4989401;28;20220;-67
2021/10/04 02:00:32;;;;;;;2.27;1.83;;;13.20;99.90;;;;;;4986120;28;20205;-67
2021/10/04 02:02:59;;;;;;;2.77;1.90;;;13.20;99.90;;;;;;4985804;28;20237;-67
2021/10/04 02:05:28;;;;;;;2.63;1.70;;;13.20;99.90;;;;;;4986610;28;20205;-67
2021/10/04 02:07:55;;;;;;;2.10;1.73;;;13.20;99.90;;;;;;4987741;28;20229;-67
2021/10/04 02:10:25;;;;;;;2.30;1.90;;;13.20;99.90;;;;;;4987251;28;20201;-67
2021/10/04 02:12:55;;;;;;;1.20;1.10;;;13.10;99.90;;;;;;4986711;28;20271;-67
2021/10/04 02:15:23;;;;;;;1.93;1.60;;;13.10;99.90;;;;;;4986409;28;20204;-67
2021/10/04 02:17:50;;;;;;;1.60;1.37;;;13.20;99.90;;;;;;4987921;28;20221;-67
2021/10/04 02:20:20;;;;;;;2.37;1.30;;;13.10;99.90;;;;;;4988057;28;20236;-67
2021/10/04 02:22:47;;;;;;;1.90;1.33;;;13.20;99.90;;;;;;4982569;28;20237;-67
2021/10/04 02:25:15;;;;;;;2.63;1.20;;;13.20;99.90;;;;;;4987700;28;20208;-67
2021/10/04 02:27:43;;;;;;;1.40;1.30;;;13.20;99.90;;;;;;4988643;28;20287;-67
2021/10/04 02:30:14;;;;;;;1.10;1.03;;;13.20;99.90;;;;;;4985528;28;21008;-67
2021/10/04 02:32:41;;;;;;;3.20;1.20;;;13.20;99.90;;;;;;4985518;28;20609;-67
2021/10/04 02:35:09;;;;;;;2.47;1.43;;;13.20;99.90;;;;;;4986402;28;20205;-67
2021/10/04 02:37:36;;;;;;;1.30;1.20;;;13.20;99.90;;;;;;4987703;28;20260;-67
2021/10/04 02:40:04;;;;;;;0.97;0.93;;;13.10;99.90;;;;;;4988121;28;20731;-67
2021/10/04 02:42:31;;;;;;;1.27;1.10;;;13.10;99.90;;;;;;4987444;28;20246;-67
2021/10/04 02:44:59;;;;;;;2.77;1.20;;;13.20;99.90;;;;;;4987399;28;20209;-67
2021/10/04 02:47:27;;;;;;;1.60;0.90;;;13.10;99.90;;;;;;4989452;28;20288;-67
2021/10/04 02:49:54;;;;;;;1.10;1.00;;;13.20;99.90;;;;;;4984348;28;20566;-67
2021/10/04 02:52:22;;;;;;;2.67;1.20;;;13.10;99.90;;;;;;4980507;28;20245;-67
2021/10/04 02:54:49;;;;;;;1.17;1.10;;;13.10;99.90;;;;;;4983340;28;20275;-67
2021/10/04 02:57:16;;;;;;;1.87;1.20;;;13.00;99.90;;;;;;4989209;28;20248;-67
2021/10/04 02:59:43;;;;;;;4.90;1.23;;;13.00;99.90;;;;;;4987365;28;20628;-67
2021/10/04 03:02:10;;;;;;;1.17;0.97;;;13.00;99.90;;;;;;4987598;28;20711;-67
2021/10/04 03:04:38;;;;;;;0.90;0.73;;;13.10;99.90;;;;;;4988250;28;20256;-67
2021/10/04 03:07:05;;;;;;;2.43;1.20;;;13.10;99.90;;;;;;4979277;28;20209;-67
2021/10/04 03:09:32;;;;;;;1.77;1.03;;;13.00;99.90;;;;;;4988044;28;20264;-68
2021/10/04 03:11:59;;;;;;;1.37;1.10;;;12.90;99.90;;;;;;4992819;28;20240;-67
2021/10/04 03:14:27;;;;;;;2.27;0.97;;;12.90;99.90;;;;;;4986870;28;20201;-66
2021/10/04 03:16:54;;;;;;;2.60;0.80;;;12.90;99.90;;;;;;4991207;28;20827;-67
2021/10/04 03:19:21;;;;;;;0.93;0.93;;;12.90;99.90;;;;;;4984800;28;20260;-67
2021/10/04 03:21:49;;;;;;;3.00;1.27;;;12.90;99.90;;;;;;4992281;28;20487;-67
2021/10/04 03:24:16;;;;;;;1.73;1.20;;;12.90;99.90;;;;;;4991681;28;20209;-67
2021/10/04 03:26:43;;;;;;;2.77;1.30;;;12.80;99.90;;;;;;4994191;28;20205;-67
2021/10/04 03:29:11;;;;;;;1.80;1.10;;;12.80;99.90;;;;;;4991662;28;20309;-67
2021/10/04 03:31:39;;;;;;;0.90;0.90;;;12.80;99.90;;;;;;4979702;28;20205;-67
2021/10/04 03:34:06;;;;;;;1.60;0.97;;;13.00;99.90;;;;;;4988450;28;20232;-67
2021/10/04 03:36:33;;;;;;;1.90;1.00;;;13.00;99.90;;;;;;4993152;28;20263;-67
2021/10/04 03:39:02;;;;;;;2.13;1.00;;;13.00;99.90;;;;;;4991084;28;20268;-67
2021/10/04 03:41:29;;;;;;;3.93;1.20;;;12.90;99.90;;;;;;4993186;28;20205;-67
2021/10/04 03:43:56;;;;;;;4.40;1.10;;;12.90;99.90;;;;;;4988761;28;20260;-67
2021/10/04 03:46:23;;;;;;;10.93;6.27;;;12.90;99.90;;;;;;4990684;28;20201;-67
2021/10/04 03:48:50;;;;;;;3.57;1.40;;;12.90;99.90;;;;;;4992688;28;20284;-67
2021/10/04 03:51:18;;;;;;;1.83;1.07;;;13.00;99.90;;;;;;4989454;28;20237;-67
2021/10/04 03:53:45;;;;;;;3.43;1.50;;;13.00;99.90;;;;;;4985194;28;20297;-67
2021/10/04 03:56:14;;;;;;;2.43;1.37;;;13.10;99.90;;;;;;4991480;28;20240;-67
2021/10/04 03:58:41;;;;;;;1.77;1.60;;;13.00;99.90;;;;;;4992414;28;20634;-68
2021/10/04 04:01:08;;;;;;;4.13;1.30;;;13.10;99.90;;;;;;4989986;28;20205;-68
2021/10/04 04:03:35;;;;;;;1.50;1.33;;;13.00;99.90;;;;;;4988727;28;20276;-67
2021/10/04 04:06:02;;;;;;;2.93;0.67;;;13.00;99.90;;;;;;4986359;28;20292;-68
2021/10/04 04:08:29;;;;;;;2.83;0.90;;;13.00;99.90;;;;;;4988996;28;20667;-68
2021/10/04 04:10:57;;;;;;;1.80;0.93;;;12.90;99.90;;;;;;4991041;28;20293;-67
2021/10/04 04:13:25;;;;;;;1.30;0.73;;;13.00;99.90;;;;;;4988646;28;20542;-68
2021/10/04 04:15:52;;;;;;;2.87;0.97;;;13.00;99.90;;;;;;4991544;28;20324;-68
2021/10/04 04:18:19;;;;;;;1.63;1.03;;;12.90;99.90;;;;;;4989364;28;20209;-68
2021/10/04 04:20:47;;;;;;;3.40;0.93;;;13.00;99.90;;;;;;4989715;28;20217;-68
2021/10/04 04:23:14;;;;;;;1.80;0.70;;;13.00;99.90;;;;;;4990550;28;20602;-68
2021/10/04 04:25:41;;;;;;;2.23;0.60;;;12.90;99.90;;;;;;4991685;28;20655;-68
2021/10/04 04:28:08;;;;;;;1.43;0.87;;;13.00;99.90;;;;;;4986434;28;20691;-67
2021/10/04 04:30:37;;;;;;;2.27;1.20;;;12.90;99.90;;;;;;4988421;28;20256;-68
2021/10/04 04:33:04;;;;;;;2.00;1.10;;;12.90;99.90;;;;;;4986063;28;20479;-68
2021/10/04 04:35:31;;;;;;;1.93;0.90;;;12.90;99.90;;;;;;4991242;28;20643;-67
2021/10/04 04:37:58;;;;;;;1.97;0.90;;;12.90;99.90;;;;;;4989174;28;20279;-68
2021/10/04 04:40:24;;;;;;;4.33;1.53;;;12.70;99.90;;;;;;4986218;28;20267;-67
2021/10/04 04:42:51;;;;;;;3.00;1.00;;;12.70;99.90;;;;;;4991527;28;20244;-68
2021/10/04 04:45:20;;;;;;;1.80;0.63;;;12.80;99.90;;;;;;4991142;28;20393;-67
2021/10/04 04:47:49;;;;;;;1.90;0.80;;;12.70;99.90;;;;;;4987714;28;20256;-67
2021/10/04 04:50:17;;;;;;;2.97;1.43;;;12.60;99.90;;;;;;4987416;28;20209;-67
2021/10/04 04:52:44;;;;;;;1.73;0.77;;;12.70;99.90;;;;;;4987435;28;20300;-67
2021/10/04 04:55:12;;;;;;;2.53;0.70;;;12.80;99.90;;;;;;4990132;28;20263;-67
2021/10/04 04:57:39;;;;;;;1.97;0.80;;;12.70;99.90;;;;;;4979628;28;20614;-67
2021/10/04 05:00:09;;;;;;;1.97;0.87;;;12.80;99.90;;;;;;4989451;28;20268;-72
2021/10/04 05:02:37;;;;;;;1.10;0.70;;;12.70;99.90;;;;;;4986913;28;20206;-73
2021/10/04 05:05:05;;;;;;;1.73;0.90;;;12.80;99.90;;;;;;4991475;28;20588;-72
2021/10/04 05:07:32;;;;;;;1.50;1.40;;;12.90;99.90;;;;;;4992053;28;20200;-73
2021/10/04 05:09:59;;;;;;;4.37;3.03;;;12.90;99.90;;;;;;4991308;28;20229;-72
2021/10/04 05:12:26;;;;;;;4.43;1.57;;;12.90;99.90;;;;;;4990276;28;20201;-73
2021/10/04 05:14:53;;;;;;;1.17;1.07;;;12.90;99.90;;;;;;4989945;28;20209;-73
2021/10/04 05:17:20;;;;;;;3.03;0.90;;;13.00;99.90;;;;;;4990162;28;20207;-72
2021/10/04 05:19:47;;;;;;;2.37;1.20;;;13.00;99.90;;;;;;4988313;28;20229;-72
2021/10/04 05:22:15;;;;;;;2.47;1.00;;;12.90;99.90;;;;;;4991858;28;20217;-72
2021/10/04 05:24:42;;;;;;;2.20;0.90;;;12.90;99.90;;;;;;4985648;28;20203;-73
2021/10/04 05:27:09;;;;;;;3.17;0.97;;;12.90;99.90;;;;;;4986769;28;20677;-72
2021/10/04 05:29:38;;;;;;;2.90;0.93;;;13.00;99.90;;;;;;4989213;28;20204;-73
2021/10/04 05:32:05;;;;;;;2.50;1.33;;;13.10;99.90;;;;;;4984964;28;20790;-73
2021/10/04 05:34:33;;;;;;;2.20;1.00;;;13.00;99.90;;;;;;4991294;28;20200;-73
2021/10/04 05:36:59;;;;;;;2.10;1.00;;;13.00;99.90;;;;;;4992348;28;20213;-72
2021/10/04 05:39:28;;;;;;;0.97;0.70;;;13.10;99.90;;;;;;4990974;28;20232;-73
2021/10/04 05:41:56;;;;;;;2.20;0.87;;;13.10;99.90;;;;;;4985571;28;20701;-72
2021/10/04 05:44:23;;;;;;;3.00;1.00;;;13.00;99.90;;;;;;4992109;28;20208;-72
2021/10/04 05:46:50;;;;;;;2.70;1.00;;;13.00;99.90;;;;;;4985057;28;20664;-72
2021/10/04 05:49:17;;;;;;;1.53;0.87;;;13.00;99.90;;;;;;4983776;28;20232;-72
2021/10/04 05:51:44;;;;;;;5.23;1.27;;;12.90;99.90;;;;;;4989314;28;20215;-73
2021/10/04 05:54:10;;;;;;;1.73;0.90;;;12.90;99.90;;;;;;4991237;28;20606;-72
2021/10/04 05:56:40;;;;;;;2.87;1.10;;;12.90;99.90;;;;;;4987994;28;20211;-72
2021/10/04 05:59:06;;;;;;;3.17;1.23;;;12.90;99.90;;;;;;4986859;28;20248;-73
2021/10/04 06:01:33;;;;;;;3.27;1.10;;;13.00;99.90;;;;;;4990174;28;20208;-72
2021/10/04 06:04:00;;;;;;;5.77;1.27;;;12.90;99.90;;;;;;4988090;28;20201;-72
2021/10/04 06:06:27;;;;;;;5.30;1.07;;;13.00;99.90;;;;;;4990921;28;20207;-72
2021/10/04 06:08:57;;;;;;;4.33;1.33;;;13.00;99.90;;;;;;4988989;28;20209;-68
2021/10/04 06:11:24;;;;;;;3.80;1.57;;;13.00;99.90;;;;;;4987552;28;20229;-67
2021/10/04 06:13:52;;;;;;;4.67;1.30;;;13.00;99.90;;;;;;4989436;28;20659;-67
2021/10/04 06:16:19;;;;;;;2.90;1.20;;;13.00;99.90;;;;;;4995529;28;20207;-67
2021/10/04 06:18:46;;;;;;;5.17;1.10;;;13.00;99.90;;;;;;4989097;28;20235;-67
2021/10/04 06:21:13;;;;;;;2.70;1.00;;;13.00;99.90;;;;;;4988385;28;20216;-67
2021/10/04 06:23:40;;;;;;;2.30;1.17;;;13.00;99.90;;;;;;4987618;28;20201;-67
2021/10/04 06:26:07;;;;;;;3.63;0.90;;;13.10;99.90;;;;;;4986426;28;20239;-67
2021/10/04 06:28:34;;;;;;;2.13;1.03;;;13.10;99.90;;;;;;4987194;28;20204;-67
2021/10/04 06:31:02;;;;;;;2.67;1.10;;;13.10;99.90;;;;;;4987988;28;20825;-67
2021/10/04 06:33:29;;;;;;;1.23;0.80;;;13.20;99.90;;;;;;4986811;28;20206;-67
2021/10/04 06:35:56;;;;;;;4.50;0.97;;;13.20;99.90;;;;;;4989125;28;20201;-67
2021/10/04 06:38:23;;;;;;;3.40;0.70;;;13.20;99.90;;;;;;4979648;28;20197;-67
2021/10/04 06:40:50;;;;;;;2.80;1.17;;;13.30;99.90;;;;;;4987034;28;20204;-67
2021/10/04 06:43:17;;;;;;;1.50;1.10;;;13.20;99.90;;;;;;4994684;28;20838;-67
2021/10/04 06:45:44;;;;;;;2.37;0.90;;;13.30;99.90;;;;;;4992690;28;20563;-67
2021/10/04 06:48:12;;;;;;;2.63;0.70;;;13.30;99.90;;;;;;4989673;28;20213;-67
2021/10/04 06:50:39;;;;;;;3.40;0.87;;;13.30;99.90;;;;;;4990663;28;20235;-67
2021/10/04 06:53:06;;;;;;;1.47;0.90;;;13.30;99.90;;;;;;4985241;28;21383;-67
2021/10/04 06:55:33;;;;;;;2.43;0.90;;;13.30;99.90;;;;;;4989921;28;20562;-67
2021/10/04 06:58:00;;;;;;;1.33;0.80;;;13.40;99.90;;;;;;4989472;28;20219;-67
2021/10/04 07:00:27;;;;;;;1.70;0.60;;;13.40;99.90;;;;;;4983228;28;20241;-68
2021/10/04 07:02:55;;;;;;;3.27;1.03;;;13.40;99.90;;;;;;4983129;28;20305;-67
2021/10/04 07:05:23;;;;;;;1.53;0.93;;;13.40;99.90;;;;;;4985672;28;20209;-67
2021/10/04 07:07:55;;;;;;;3.13;1.33;;;13.40;99.90;;;;;;4980640;28;20854;-67
2021/10/04 07:10:22;;;;;;;1.97;1.10;;;13.40;99.90;;;;;;4985138;28;20810;-68
2021/10/04 07:12:48;;;;;;;1.90;0.73;;;13.50;99.90;;;;;;4983590;28;20213;-67
2021/10/04 07:15:15;;;;;;;2.70;0.97;;;13.60;99.90;;;;;;4984783;28;20205;-67
2021/10/04 07:17:42;;;;;;;3.07;1.17;;;13.50;99.90;;;;;;4982823;28;20292;-67
2021/10/04 07:20:10;;;;;;;2.33;1.00;;;13.40;99.90;;;;;;4982267;28;20227;-67
2021/10/04 07:22:39;;;;;;;1.13;0.80;;;13.50;99.90;;;;;;4991723;28;20637;-68
2021/10/04 07:25:07;;;;;;;3.83;1.00;;;13.50;99.90;;;;;;4991944;28;20247;-67
2021/10/04 07:27:37;;;;;;;3.17;1.00;;;13.60;99.90;;;;;;4991015;28;20255;-67
2021/10/04 07:30:05;;;;;;;2.00;1.03;;;13.50;99.90;;;;;;4988837;28;20648;-67
2021/10/04 07:32:32;;;;;;;5.13;0.97;;;13.70;99.90;;;;;;4989088;28;20208;-67
2021/10/04 07:35:02;;;;;;;2.30;0.87;;;13.70;99.90;;;;;;4989964;28;20690;-67
2021/10/04 07:37:29;;;;;;;4.43;0.93;;;13.70;99.90;;;;;;4989587;28;20205;-67
2021/10/04 07:39:57;;;;;;;5.13;1.20;;;13.70;99.90;;;;;;4989289;28;20235;-67
2021/10/04 07:42:24;;;;;;;2.73;0.93;;;13.80;99.90;;;;;;4989932;28;20201;-68
2021/10/04 07:44:51;;;;;;;4.97;1.23;;;13.90;99.90;;;;;;4984996;28;20678;-67
2021/10/04 07:47:18;;;;;;;2.83;0.80;;;13.90;99.90;;;;;;4988839;28;20584;-67
2021/10/04 07:49:45;;;;;;;1.60;0.70;;;14.00;99.90;;;;;;4990678;28;20251;-67
2021/10/04 07:52:12;;;;;;;0.77;0.60;;;14.00;99.90;;;;;;4992551;28;20644;-67
2021/10/04 07:54:39;;;;;;;4.43;1.20;;;14.00;99.90;;;;;;4993021;28;20209;-67
2021/10/04 07:57:12;;;;;;;4.33;0.83;;;14.10;99.90;;;;;;4993429;28;20213;-67
2021/10/04 07:59:41;;;;;;;1.00;0.70;;;14.10;99.90;;;;;;4992614;28;20320;-67
2021/10/04 08:02:09;;;;;;;0.60;0.47;;;14.20;99.90;;;;;;4993482;28;20207;-67
2021/10/04 08:04:37;;;;;;;0.87;0.63;;;14.20;99.90;;;;;;4995540;28;20655;-67
2021/10/04 08:07:05;;;;;;;1.73;0.80;;;14.30;99.90;;;;;;4983731;28;20202;-67
2021/10/04 08:09:32;;;;;;;3.50;0.73;;;14.40;99.90;;;;;;4990506;28;20201;-67
2021/10/04 08:11:59;;;;;;;1.57;0.80;;;14.50;99.90;;;;;;4989919;28;20220;-67
2021/10/04 08:14:27;;;;;;;2.27;0.70;;;14.50;99.90;;;;;;4993100;28;20220;-67
2021/10/04 08:16:54;;;;;;;1.50;0.70;;;14.60;99.90;;;;;;4992470;28;20201;-67
2021/10/04 08:19:21;;;;;;;3.50;0.83;;;14.70;99.90;;;;;;4993402;28;20221;-67
2021/10/04 08:21:48;;;;;;;2.23;0.70;;;14.70;99.90;;;;;;4992310;28;20224;-68
2021/10/04 08:24:15;;;;;;;1.53;0.80;;;14.80;99.90;;;;;;4992548;28;20237;-67
2021/10/04 08:26:41;;;;;;;1.00;0.70;;;14.90;99.90;;;;;;5005662;28;20205;-67
2021/10/04 08:29:08;;;;;;;3.40;0.90;;;14.90;99.90;;;;;;4992994;28;20455;-68
2021/10/04 08:31:36;;;;;;;2.80;1.20;;;14.90;99.90;;;;;;4991753;28;20572;-68
2021/10/04 08:34:05;;;;;;;1.80;0.90;;;15.00;99.90;;;;;;4977819;28;20205;-68
2021/10/04 08:36:33;;;;;;;2.10;0.73;;;15.10;99.90;;;;;;4991259;28;20209;-68
2021/10/04 08:39:01;;;;;;;2.03;1.13;;;15.10;99.90;;;;;;4989169;28;20209;-67
2021/10/04 08:41:28;;;;;;;2.50;0.90;;;15.10;99.90;;;;;;4992183;28;20205;-67
2021/10/04 08:43:56;;;;;;;2.17;1.00;;;14.90;99.90;;;;;;4994053;28;20697;-67
2021/10/04 08:46:23;;;;;;;2.33;0.70;;;14.90;99.90;;;;;;4993602;28;20204;-68
2021/10/04 08:48:51;;;;;;;3.23;0.93;;;14.90;99.90;;;;;;4991328;28;20205;-67
2021/10/04 08:51:18;;;;;;;1.47;0.60;;;15.10;99.90;;;;;;4991237;28;20211;-68
2021/10/04 08:53:46;;;;;;;2.07;0.70;;;15.10;99.90;;;;;;4992818;28;20208;-68
2021/10/04 08:56:13;;;;;;;4.73;0.80;;;15.20;99.90;;;;;;4991875;28;20236;-67
2021/10/04 08:58:40;;;;;;;4.13;0.90;;;15.30;99.90;;;;;;4997214;28;20204;-68
2021/10/04 09:01:08;;;;;;;2.27;0.90;;;15.30;99.90;;;;;;5009824;28;20232;-68
2021/10/04 09:03:45;;;;;;;1.93;0.73;;;15.30;99.90;;;;;;4994877;28;20631;-68
2021/10/04 09:06:31;;;;;;;2.47;0.70;;;15.30;99.90;;;;;;4992953;28;20651;-68
2021/10/04 09:08:59;;;;;;;4.17;0.67;;;15.40;99.90;;;;;;4992800;28;20204;-68
2021/10/04 09:11:36;;;;;;;1.60;0.50;;;15.30;99.90;;;;;;4991159;28;20211;-68
2021/10/04 09:14:06;;;;;;;1.83;0.70;;;15.40;99.90;;;;;;4992238;28;20214;-68
2021/10/04 09:16:52;;;;;;;3.23;0.87;;;15.40;99.90;;;;;;4992558;28;20207;-67
2021/10/04 09:19:20;;;;;;;2.83;0.63;;;15.60;99.90;;;;;;4988784;28;20601;-68
2021/10/04 09:22:07;;;;;;;0.57;0.53;;;15.60;99.90;;;;;;4991423;28;20209;-67
2021/10/04 09:24:35;;;;;;;3.87;0.77;;;15.60;99.90;;;;;;4990936;28;20291;-67
2021/10/04 09:27:01;;;;;;;2.20;0.80;;;15.50;99.90;;;;;;5003867;28;20200;-68
2021/10/04 09:29:47;;;;;;;2.97;0.70;;;15.50;99.90;;;;;;4985431;28;20296;-71
2021/10/04 09:32:21;;;;;;;2.63;1.00;;;15.50;99.90;;;;;;4988295;28;20205;-73
2021/10/04 09:34:48;;;;;;;0.77;0.70;;;15.70;99.90;;;;;;4988289;28;20574;-68
2021/10/04 09:37:25;;;;;;;1.23;0.75;;;15.70;99.90;;;;;;4986013;28;20207;-68
2021/10/04 09:39:52;;;;;;;1.27;0.85;;;15.70;99.90;;;;;;4991553;28;20224;-68
2021/10/04 09:42:21;;;;;;;1.90;0.60;;;15.80;99.90;;;;;;4992507;28;20243;-68
2021/10/04 09:44:55;;;;;;;1.85;0.70;;;15.70;99.90;;;;;;4992461;28;20674;-68
2021/10/04 09:47:25;;;;;;;1.75;0.90;;;15.60;99.90;;;;;;4991352;28;20216;-68
2021/10/04 09:49:58;;;;;;;4.28;0.60;;;15.60;99.90;;;;;;5001219;28;20196;-68
2021/10/04 09:52:45;;;;;;;2.20;0.60;;;15.70;99.90;;;;;;4991966;28;20227;-67
2021/10/04 09:55:21;;;;;;;1.30;0.55;;;15.80;99.90;;;;;;4984055;28;20209;-68
2021/10/04 09:58:03;;;;;;;0.60;0.60;;;15.70;99.90;;;;;;4986896;28;20211;-68
2021/10/04 10:00:33;;;;;;;2.13;0.70;;;15.80;99.90;;;;;;4983666;28;20226;-68
2021/10/04 10:03:01;;;;;;;1.50;0.90;;;15.80;99.90;;;;;;4998995;28;20240;-68
2021/10/04 10:05:29;;;;;;;1.20;0.70;;;15.80;99.90;;;;;;4988453;28;20573;-68
2021/10/04 10:07:58;;;;;;;5.93;0.73;;;16.00;99.90;;;;;;4992364;28;20204;-68
2021/10/04 10:10:25;;;;;;;1.52;0.52;;;16.00;99.90;;;;;;4987268;28;20704;-67
2021/10/04 10:12:52;;;;;;;2.90;0.90;;;15.90;99.90;;;;;;4987611;28;20212;-68
2021/10/04 10:15:21;;;;;;;2.72;0.85;;;16.10;99.90;;;;;;4980759;28;20209;-68
2021/10/04 10:17:50;;;;;;;4.28;0.60;;;16.10;99.90;;;;;;5003342;28;20212;-68
2021/10/04 10:20:21;;;;;;;0.55;0.43;;;15.90;99.90;;;;;;4990716;28;20217;-68
2021/10/04 10:22:50;;;;;;;2.35;0.73;;;16.20;99.90;;;;;;4991364;28;20838;-68
2021/10/04 10:25:30;;;;;;;2.58;0.65;;;16.20;99.90;;;;;;5004857;28;20462;-68
2021/10/04 10:27:57;;;;;;;1.13;0.43;;;16.30;99.90;;;;;;4988335;28;20208;-68
2021/10/04 10:30:26;;;;;;;5.65;0.70;;;16.20;99.90;;;;;;4979546;28;20194;-68
2021/10/04 10:32:54;;;;;;;2.78;0.63;;;16.30;99.90;;;;;;4987071;28;20578;-68
2021/10/04 10:35:45;;;;;;;1.38;0.68;;;16.40;99.90;;;;;;4992120;28;20231;-67
2021/10/04 10:38:12;;;;;;;2.45;0.88;;;16.40;99.90;;;;;;4988907;28;20651;-68
2021/10/04 10:40:40;;;;;;;2.30;0.57;;;16.50;99.90;;;;;;4989832;28;20225;-68
2021/10/04 10:43:11;;;;;;;0.98;0.63;;;16.60;99.90;;;;;;4991246;28;20621;-68
2021/10/04 10:45:47;;;;;;;4.00;0.80;;;16.60;99.90;;;;;;4985748;28;20205;-68
2021/10/04 10:48:15;;;;;;;1.42;0.70;;;16.60;99.90;;;;;;4989213;28;20581;-68
2021/10/04 10:50:44;;;;;;;1.30;0.60;;;16.50;99.90;;;;;;4991580;28;20655;-68
2021/10/04 10:53:30;;;;;;;2.88;0.80;;;16.60;99.90;;;;;;4991016;28;20580;-68
2021/10/04 10:56:01;;;;;;;2.13;0.63;;;16.70;99.90;;;;;;4992358;28;20212;-68
2021/10/04 10:58:29;;;;;;;2.30;1.20;;;16.50;99.90;;;;;;4995594;28;20582;-68
2021/10/04 11:01:15;;;;;;;0.98;0.68;;;16.50;99.90;;;;;;4990315;28;20232;-68
2021/10/04 11:03:54;;;;;;;1.48;0.47;;;16.70;99.90;;;;;;4988663;28;20209;-68
2021/10/04 11:06:39;;;;;;;1.42;0.88;;;16.60;99.90;;;;;;4982247;28;20213;-68
2021/10/04 11:09:06;;;;;;;1.75;0.47;;;16.70;99.90;;;;;;4987660;28;20666;-68
2021/10/04 11:11:35;;;;;;;6.32;0.80;;;16.50;99.90;;;;;;4994945;28;20197;-68
2021/10/04 11:14:15;;;;;;;2.83;0.60;;;16.50;99.90;;;;;;4991301;28;20216;-68
2021/10/04 11:17:06;;;;;;;2.28;0.90;;;16.70;99.90;;;;;;4989509;28;20643;-68
2021/10/04 11:19:38;;;;;;;1.77;0.57;;;16.50;99.90;;;;;;4990932;28;20300;-68
2021/10/04 11:22:07;;;;;;;2.58;1.13;;;16.80;99.90;;;;;;4989772;28;20558;-68
2021/10/04 11:24:37;;;;;;;3.35;0.68;;;16.90;99.90;;;;;;4991389;28;20289;-68
2021/10/04 11:27:06;;;;;;;1.20;0.63;;;16.90;99.90;;;;;;4991086;28;20211;-68
2021/10/04 11:29:35;;;;;;;2.92;0.50;;;16.90;99.90;;;;;;4993088;28;20583;-68
2021/10/04 11:32:14;;;;;;;0.70;0.43;;;17.00;99.90;;;;;;4992051;28;20700;-68
2021/10/04 11:34:41;;;;;;;1.17;0.60;;;17.20;99.90;;;;;;4994370;28;20670;-68
2021/10/04 11:37:08;;;;;;;0.70;0.40;;;17.20;99.90;;;;;;4995299;28;20201;-68
2021/10/04 11:39:36;;;;;;;0.52;0.50;;;17.10;99.90;;;;;;4993571;28;20248;-68
2021/10/04 11:42:07;;;;;;;3.75;1.02;;;16.90;99.90;;;;;;4990414;28;20225;-68
2021/10/04 11:44:37;;;;;;;2.08;0.70;;;16.90;99.90;;;;;;4984797;28;20249;-68
2021/10/04 11:47:06;;;;;;;2.45;0.90;;;17.00;99.90;;;;;;4996053;28;20213;-67
2021/10/04 11:49:35;;;;;;;2.20;0.50;;;17.00;99.90;;;;;;4991071;28;20656;-67
2021/10/04 11:52:06;;;;;;;2.28;0.70;;;17.10;99.90;;;;;;4993377;28;20216;-68
2021/10/04 11:54:37;;;;;;;3.72;0.80;;;17.10;99.90;;;;;;4986134;28;20201;-68
2021/10/04 11:57:08;;;;;;;1.50;0.95;;;16.90;99.90;;;;;;4984210;28;20871;-68
2021/10/04 11:59:49;;;;;;;4.13;0.70;;;17.00;99.90;;;;;;4995094;28;20591;-68
2021/10/04 12:02:22;;;;;;;1.02;0.40;;;16.90;99.90;;;;;;4993854;28;20201;-68
2021/10/04 12:04:49;;;;;;;3.45;0.65;;;16.80;99.90;;;;;;4992458;28;20216;-68
2021/10/04 12:07:16;;;;;;;1.63;0.35;;;16.80;99.90;;;;;;4994384;28;20576;-68
2021/10/04 12:09:43;;;;;;;2.35;0.63;;;16.90;99.90;;;;;;4988751;28;20197;-69
2021/10/04 12:12:13;;;;;;;2.63;0.63;;;17.10;99.90;;;;;;4993692;28;20203;-70
2021/10/04 12:14:45;;;;;;;4.32;0.70;;;17.10;99.90;;;;;;4991908;28;20201;-70
2021/10/04 12:17:12;;;;;;;2.75;0.50;;;17.20;99.90;;;;;;5002393;28;20667;-68
2021/10/04 12:19:39;;;;;;;3.28;0.70;;;17.30;99.90;;;;;;4992099;28;20204;-68
2021/10/04 12:22:06;;;;;;;5.88;0.93;;;17.30;99.90;;;;;;4993248;28;20232;-68
2021/10/04 12:24:41;;;;;;;3.22;0.80;;;17.40;99.90;;;;;;4987361;28;20241;-68
2021/10/04 12:27:15;;;;;;;1.75;0.85;;;17.30;99.90;;;;;;4988904;28;20214;-68
2021/10/04 12:29:43;;;;;;;1.83;0.63;;;17.40;99.90;;;;;;4983629;28;20201;-68
2021/10/04 12:32:22;;;;;;;1.25;0.70;;;17.40;99.90;;;;;;4985083;28;20220;-68
2021/10/04 12:35:15;;;;;;;3.25;0.90;;;17.20;99.90;;;;;;4990296;28;20200;-67
2021/10/04 12:37:45;;;;;;;1.58;0.57;;;17.20;99.90;;;;;;4983487;28;20240;-67
2021/10/04 12:40:29;;;;;;;0.80;0.77;;;17.30;99.90;;;;;;4988709;28;20209;-69
2021/10/04 12:43:03;;;;;;;1.42;0.55;;;17.30;99.90;;;;;;4999249;28;20712;-68
2021/10/04 12:45:30;;;;;;;2.45;0.80;;;17.30;99.90;;;;;;4987910;28;20200;-68
2021/10/04 12:48:03;;;;;;;2.45;0.73;;;17.40;99.90;;;;;;4990897;28;20678;-71
2021/10/04 12:50:33;;;;;;;1.13;0.57;;;17.40;99.90;;;;;;4990971;28;20201;-68
2021/10/04 12:53:17;;;;;;;1.52;0.50;;;17.40;99.90;;;;;;4983763;28;20754;-75
2021/10/04 12:55:54;;;;;;;0.68;0.68;;;17.30;99.90;;;;;;4982288;28;20212;-74